createdAt,value
2019-01-09T00:00:54.716Z,4.60
2019-01-09T00:03:26.001Z,4.50
2019-01-09T00:05:57.268Z,4.50
2019-01-09T00:08:30.365Z,4.50
2019-01-09T00:11:01.423Z,4.50
2019-01-09T00:13:32.682Z,4.50
2019-01-09T00:16:17.270Z,4.40
2019-01-09T00:18:57.517Z,4.40
2019-01-09T00:21:30.076Z,4.40
2019-01-09T00:24:02.780Z,4.40
2019-01-09T00:26:35.240Z,4.40
2019-01-09T00:29:11.480Z,4.40
2019-01-09T00:31:44.585Z,4.40
2019-01-09T00:34:15.915Z,4.40
2019-01-09T00:36:47.096Z,4.40
2019-01-09T00:39:18.347Z,4.40
2019-01-09T00:41:49.596Z,4.30
2019-01-09T00:44:20.854Z,4.30
2019-01-09T00:46:52.103Z,4.30
2019-01-09T00:49:23.365Z,4.30
2019-01-09T00:51:54.584Z,4.30
2019-01-09T00:54:26.041Z,4.20
2019-01-09T00:56:57.427Z,4.10
2019-01-09T00:59:28.723Z,4.10
2019-01-09T01:02:39.832Z,4.10
2019-01-09T01:06:03.970Z,4.00
2019-01-09T01:09:45.476Z,4.10
2019-01-09T01:13:18.357Z,4.10
2019-01-09T01:16:56.421Z,4.10
2019-01-09T01:20:32.577Z,4.00
2019-01-09T01:23:54.477Z,4.00
2019-01-09T01:26:56.597Z,4.00
2019-01-09T01:30:33.952Z,4.10
2019-01-09T01:33:56.232Z,4.10
2019-01-09T01:37:22.009Z,4.20
2019-01-09T01:40:48.048Z,4.20
2019-01-09T01:44:30.380Z,4.20
2019-01-09T01:48:06.396Z,4.20
2019-01-09T01:51:33.724Z,4.10
2019-01-09T01:55:02.722Z,3.90
2019-01-09T01:58:26.300Z,3.70
2019-01-09T02:02:08.940Z,3.60
2019-01-09T02:05:13.689Z,3.60
2019-01-09T02:08:53.579Z,3.50
2019-01-09T02:12:14.048Z,3.50
2019-01-09T02:15:51.133Z,3.50
2019-01-09T02:19:10.401Z,3.40
2019-01-09T02:22:10.332Z,3.40
2019-01-09T02:25:36.015Z,3.40
2019-01-09T02:29:07.874Z,3.50
2019-01-09T02:32:34.184Z,3.50
2019-01-09T02:35:05.548Z,3.60
2019-01-09T02:37:36.779Z,3.60
2019-01-09T02:40:08.530Z,3.70
2019-01-09T02:42:39.804Z,3.60
2019-01-09T02:45:14.049Z,3.50
2019-01-09T02:47:45.353Z,3.50
2019-01-09T02:50:16.602Z,3.50
2019-01-09T02:52:47.938Z,3.40
2019-01-09T02:55:19.199Z,3.30
2019-01-09T02:57:56.597Z,3.30
2019-01-09T03:00:23.268Z,3.30
2019-01-09T03:02:54.502Z,3.30
2019-01-09T03:05:28.830Z,3.30
2019-01-09T03:08:00.166Z,3.30
2019-01-09T03:10:31.442Z,3.30
2019-01-09T03:13:02.680Z,3.30
2019-01-09T03:15:33.937Z,3.20
2019-01-09T03:18:06.215Z,3.30
2019-01-09T03:20:38.858Z,3.20
2019-01-09T03:23:10.151Z,3.20
2019-01-09T03:25:41.386Z,3.20
2019-01-09T03:28:12.622Z,3.20
2019-01-09T03:30:43.896Z,3.10
2019-01-09T03:33:15.146Z,3.10
2019-01-09T03:35:46.378Z,3.10
2019-01-09T03:38:17.555Z,3.00
2019-01-09T03:40:48.814Z,3.00
2019-01-09T03:43:20.092Z,3.00
2019-01-09T03:45:51.468Z,3.00
2019-01-09T03:48:22.690Z,3.00
2019-01-09T03:50:54.078Z,3.10
2019-01-09T03:53:25.294Z,3.20
2019-01-09T03:55:56.553Z,3.30
2019-01-09T03:58:27.753Z,3.30
2019-01-09T04:00:59.061Z,3.30
2019-01-09T04:03:30.323Z,3.20
2019-01-09T04:06:01.557Z,3.10
2019-01-09T04:08:32.821Z,3.10
2019-01-09T04:11:04.033Z,3.10
2019-01-09T04:13:35.281Z,3.10
2019-01-09T04:16:06.524Z,3.20
2019-01-09T04:18:37.759Z,3.20
2019-01-09T04:21:09.109Z,3.10
2019-01-09T04:23:40.329Z,3.10
2019-01-09T04:26:11.503Z,3.10
2019-01-09T04:28:42.767Z,3.10
2019-01-09T04:31:14.042Z,3.00
2019-01-09T04:33:45.307Z,2.90
2019-01-09T04:36:16.476Z,2.80
2019-01-09T04:38:47.698Z,2.80
2019-01-09T04:41:18.956Z,2.70
2019-01-09T04:43:50.189Z,2.70
2019-01-09T04:46:21.477Z,2.60
2019-01-09T04:48:53.215Z,2.50
2019-01-09T04:51:24.613Z,2.40
2019-01-09T04:53:55.820Z,2.30
2019-01-09T04:56:46.065Z,2.30
2019-01-09T04:59:17.320Z,2.30
2019-01-09T05:01:48.587Z,2.30
2019-01-09T05:04:19.749Z,2.30
2019-01-09T05:06:50.988Z,2.40
2019-01-09T05:09:22.261Z,2.40
2019-01-09T05:11:53.534Z,2.30
2019-01-09T05:14:24.785Z,2.40
2019-01-09T05:16:56.016Z,2.30
2019-01-09T05:19:27.306Z,2.30
2019-01-09T05:21:58.635Z,2.40
2019-01-09T05:24:29.891Z,2.40
2019-01-09T05:27:01.127Z,2.50
2019-01-09T05:29:32.395Z,2.50
2019-01-09T05:32:03.594Z,2.50
2019-01-09T05:34:34.875Z,2.40
2019-01-09T05:37:09.616Z,2.40
2019-01-09T05:39:39.858Z,2.50
2019-01-09T05:42:11.277Z,2.50
2019-01-09T05:44:42.565Z,2.50
2019-01-09T05:47:16.136Z,2.60
2019-01-09T05:49:47.398Z,2.70
2019-01-09T05:52:18.628Z,2.70
2019-01-09T05:54:49.817Z,2.80
2019-01-09T05:57:21.123Z,2.80
2019-01-09T05:59:52.335Z,2.80
2019-01-09T06:02:23.719Z,2.70
2019-01-09T06:04:54.967Z,2.70
2019-01-09T06:07:26.279Z,2.60
2019-01-09T06:09:57.505Z,2.60
2019-01-09T06:12:28.761Z,2.70
2019-01-09T06:15:00.001Z,2.60
2019-01-09T06:17:31.225Z,2.60
2019-01-09T06:20:02.463Z,2.60
2019-01-09T06:22:33.727Z,2.60
2019-01-09T06:25:05.276Z,2.60
2019-01-09T06:27:36.508Z,2.50
2019-01-09T06:30:10.057Z,2.40
2019-01-09T06:32:41.461Z,2.30
2019-01-09T06:35:12.704Z,2.40
2019-01-09T06:37:43.945Z,2.40
2019-01-09T06:40:15.118Z,2.30
2019-01-09T06:42:46.204Z,2.30
2019-01-09T06:45:17.482Z,2.40
2019-01-09T06:47:48.727Z,2.30
2019-01-09T06:50:21.672Z,2.40
2019-01-09T06:52:52.864Z,2.40
2019-01-09T06:55:24.158Z,2.30
2019-01-09T06:57:55.393Z,2.40
2019-01-09T07:00:26.667Z,2.50
2019-01-09T07:02:57.923Z,2.50
2019-01-09T07:05:29.187Z,2.50
2019-01-09T07:08:00.425Z,2.50
2019-01-09T07:10:31.660Z,2.40
2019-01-09T07:13:02.832Z,2.40
2019-01-09T07:15:34.106Z,2.30
2019-01-09T07:18:05.356Z,2.30
2019-01-09T07:20:36.636Z,2.30
2019-01-09T07:23:07.929Z,2.30
2019-01-09T07:25:39.282Z,2.30
2019-01-09T07:28:10.571Z,2.30
2019-01-09T07:30:41.785Z,2.30
2019-01-09T07:33:13.015Z,2.20
2019-01-09T07:35:44.266Z,2.20
2019-01-09T07:38:15.498Z,2.10
2019-01-09T07:40:46.761Z,2.10
2019-01-09T07:43:18.004Z,2.10
2019-01-09T07:45:49.170Z,2.10
2019-01-09T07:48:20.387Z,2.10
2019-01-09T07:50:51.589Z,2.20
2019-01-09T07:53:22.822Z,2.20
2019-01-09T07:55:54.051Z,2.30
2019-01-09T07:58:25.311Z,2.50
2019-01-09T08:00:56.595Z,2.60
2019-01-09T08:03:27.837Z,2.70
2019-01-09T08:05:59.097Z,2.70
2019-01-09T08:08:30.283Z,2.70
2019-01-09T08:11:01.539Z,2.60
2019-01-09T08:13:32.819Z,2.60
2019-01-09T08:16:04.060Z,2.60
2019-01-09T08:18:35.315Z,2.60
2019-01-09T08:21:06.692Z,2.60
2019-01-09T08:23:37.927Z,2.70
2019-01-09T08:26:09.193Z,2.70
2019-01-09T08:28:40.504Z,2.60
2019-01-09T08:31:11.694Z,2.70
2019-01-09T08:33:42.954Z,2.70
2019-01-09T08:36:14.218Z,2.80
2019-01-09T08:38:45.495Z,2.90
2019-01-09T08:41:16.749Z,3.00
2019-01-09T08:43:47.979Z,3.10
2019-01-09T08:46:19.235Z,3.30
2019-01-09T08:48:50.506Z,3.50
2019-01-09T08:51:22.426Z,3.70
2019-01-09T08:53:53.661Z,3.70
2019-01-09T08:56:25.149Z,3.80
2019-01-09T08:58:56.428Z,3.90
2019-01-09T09:01:37.018Z,4.10
2019-01-09T09:04:08.219Z,4.20
2019-01-09T09:06:42.791Z,4.20
2019-01-09T09:09:14.827Z,4.20
2019-01-09T09:11:46.569Z,4.00
2019-01-09T09:14:24.303Z,3.80
2019-01-09T09:17:06.287Z,3.80
2019-01-09T09:19:37.709Z,3.70
2019-01-09T09:22:09.061Z,3.80
2019-01-09T09:24:40.474Z,3.80
2019-01-09T09:27:11.759Z,3.80
2019-01-09T09:29:43.130Z,3.80
2019-01-09T09:32:14.423Z,3.80
2019-01-09T09:34:45.596Z,3.80
2019-01-09T09:37:17.959Z,3.80
2019-01-09T09:39:49.738Z,3.70
2019-01-09T09:42:20.974Z,3.70
2019-01-09T09:44:52.257Z,3.70
2019-01-09T09:47:23.508Z,3.70
2019-01-09T09:49:54.813Z,3.60
2019-01-09T09:52:26.025Z,3.60
2019-01-09T09:54:57.190Z,3.70
2019-01-09T09:57:28.403Z,3.80
2019-01-09T09:59:59.585Z,3.80
2019-01-09T10:02:30.797Z,3.90
2019-01-09T10:05:02.091Z,4.10
2019-01-09T10:07:33.228Z,4.20
2019-01-09T10:10:05.272Z,4.30
2019-01-09T10:12:36.503Z,4.30
2019-01-09T10:15:09.282Z,4.20
2019-01-09T10:17:40.590Z,4.00
2019-01-09T10:20:15.045Z,4.00
2019-01-09T10:22:48.010Z,3.90
2019-01-09T10:25:19.261Z,3.80
2019-01-09T10:27:50.480Z,3.80
2019-01-09T10:30:22.252Z,3.90
2019-01-09T10:32:53.528Z,4.00
2019-01-09T10:35:24.996Z,4.10
2019-01-09T10:38:01.908Z,4.20
2019-01-09T10:40:36.248Z,4.20
2019-01-09T10:43:07.552Z,4.30
2019-01-09T10:45:38.904Z,4.30
2019-01-09T10:48:11.644Z,4.40
2019-01-09T10:50:43.209Z,4.40
2019-01-09T10:53:14.737Z,4.50
2019-01-09T10:55:46.677Z,4.50
2019-01-09T10:58:18.493Z,4.50
2019-01-09T11:00:49.734Z,4.50
2019-01-09T11:03:20.962Z,4.60
2019-01-09T11:05:52.096Z,4.70
2019-01-09T11:08:23.298Z,4.70
2019-01-09T11:10:54.541Z,4.70
2019-01-09T11:13:25.643Z,4.70
2019-01-09T11:15:56.815Z,4.80
2019-01-09T11:18:27.963Z,4.80
2019-01-09T11:20:59.255Z,4.80
2019-01-09T11:23:30.467Z,4.80
2019-01-09T11:26:01.749Z,5.00
2019-01-09T11:28:32.982Z,5.10
2019-01-09T11:31:04.173Z,5.10
2019-01-09T11:33:35.433Z,5.20
2019-01-09T11:36:07.119Z,5.20
2019-01-09T11:38:38.287Z,5.20
2019-01-09T11:41:09.367Z,5.20
2019-01-09T11:43:40.705Z,5.10
2019-01-09T11:46:11.974Z,5.20
2019-01-09T11:48:43.290Z,5.20
2019-01-09T11:51:14.587Z,5.30
2019-01-09T11:54:04.991Z,5.40
2019-01-09T11:56:36.272Z,5.40
2019-01-09T11:59:10.599Z,5.30
2019-01-09T12:01:41.835Z,5.20
2019-01-09T12:04:13.103Z,5.20
2019-01-09T12:06:44.393Z,5.20
2019-01-09T12:09:15.619Z,5.20
2019-01-09T12:11:46.911Z,5.20
2019-01-09T12:14:18.249Z,5.20
2019-01-09T12:16:49.538Z,5.20
2019-01-09T12:19:20.863Z,5.10
2019-01-09T12:21:52.167Z,5.10
2019-01-09T12:24:23.447Z,5.00
2019-01-09T12:26:54.726Z,5.00
2019-01-09T12:29:25.990Z,5.00
2019-01-09T12:31:57.306Z,5.10
2019-01-09T12:34:28.552Z,5.20
2019-01-09T12:36:59.829Z,5.30
2019-01-09T12:39:31.099Z,5.30
2019-01-09T12:42:02.396Z,5.30
2019-01-09T12:44:33.655Z,5.30
2019-01-09T12:47:05.016Z,5.30
2019-01-09T12:49:36.268Z,5.40
2019-01-09T12:52:07.459Z,5.50
2019-01-09T12:54:38.689Z,5.40
2019-01-09T12:57:10.011Z,5.50
2019-01-09T12:59:51.114Z,5.40
2019-01-09T13:02:25.246Z,5.40
2019-01-09T13:04:56.561Z,5.40
2019-01-09T13:07:40.479Z,5.30
2019-01-09T13:10:30.773Z,5.30
2019-01-09T13:13:24.249Z,5.30
2019-01-09T13:15:55.878Z,5.40
2019-01-09T13:18:27.209Z,5.30
2019-01-09T13:20:58.474Z,5.30
2019-01-09T13:23:29.739Z,5.30
2019-01-09T13:26:00.966Z,5.30
2019-01-09T13:28:35.525Z,5.30
2019-01-09T13:31:08.535Z,5.40
2019-01-09T13:33:43.375Z,5.40
2019-01-09T13:36:17.681Z,5.40
2019-01-09T13:38:51.869Z,5.40
2019-01-09T13:41:25.729Z,5.30
2019-01-09T13:43:59.652Z,5.20
2019-01-09T13:46:32.880Z,5.10
2019-01-09T13:49:06.987Z,5.10
2019-01-09T13:51:41.968Z,5.00
2019-01-09T13:54:16.438Z,5.00
2019-01-09T13:56:51.704Z,5.10
2019-01-09T13:59:22.923Z,5.10
2019-01-09T14:01:54.277Z,5.10
2019-01-09T14:04:25.488Z,5.10
2019-01-09T14:06:56.794Z,5.00
2019-01-09T14:09:28.019Z,5.10
2019-01-09T14:11:59.316Z,5.10
2019-01-09T14:14:30.553Z,5.10
2019-01-09T14:17:01.817Z,5.10
2019-01-09T14:19:33.053Z,5.10
2019-01-09T14:22:04.458Z,5.10
2019-01-09T14:24:35.698Z,5.10
2019-01-09T14:27:06.909Z,5.00
2019-01-09T14:29:38.071Z,5.00
2019-01-09T14:32:09.442Z,5.10
2019-01-09T14:34:40.707Z,5.00
2019-01-09T14:37:11.984Z,4.90
2019-01-09T14:39:52.796Z,4.90
2019-01-09T14:42:24.097Z,4.80
2019-01-09T14:44:55.368Z,4.80
2019-01-09T14:47:26.607Z,4.80
2019-01-09T14:49:57.837Z,4.80
2019-01-09T14:52:29.106Z,4.70
2019-01-09T14:55:00.331Z,4.70
2019-01-09T14:57:31.544Z,4.70
2019-01-09T15:00:02.737Z,4.70
2019-01-09T15:02:33.991Z,4.70
2019-01-09T15:05:05.804Z,4.60
2019-01-09T15:07:37.057Z,4.60
2019-01-09T15:10:14.225Z,4.60
2019-01-09T15:12:45.609Z,4.60
2019-01-09T15:15:17.655Z,4.50
2019-01-09T15:17:48.924Z,4.50
2019-01-09T15:20:21.244Z,4.40
2019-01-09T15:22:52.531Z,4.40
2019-01-09T15:25:23.742Z,4.30
2019-01-09T15:27:55.024Z,4.30
2019-01-09T15:30:29.688Z,4.20
2019-01-09T15:33:01.960Z,4.20
2019-01-09T15:35:33.389Z,4.20
2019-01-09T15:38:04.839Z,4.20
2019-01-09T15:40:37.888Z,4.10
2019-01-09T15:43:09.161Z,4.00
2019-01-09T15:45:40.529Z,3.90
2019-01-09T15:48:12.056Z,3.80
2019-01-09T15:50:43.347Z,3.80
2019-01-09T15:53:14.598Z,3.80
2019-01-09T15:55:45.874Z,3.90
2019-01-09T15:58:17.033Z,3.90
2019-01-09T16:00:53.229Z,3.90
2019-01-09T16:03:24.508Z,3.80
2019-01-09T16:05:55.800Z,3.80
2019-01-09T16:08:27.039Z,3.80
2019-01-09T16:11:04.620Z,3.80
2019-01-09T16:13:43.061Z,3.70
2019-01-09T16:16:28.251Z,3.70
2019-01-09T16:19:19.557Z,3.60
2019-01-09T16:21:58.633Z,3.60
2019-01-09T16:24:35.763Z,3.50
2019-01-09T16:27:18.660Z,3.50
2019-01-09T16:30:01.224Z,3.50
2019-01-09T16:32:42.852Z,3.60
2019-01-09T16:35:21.177Z,3.60
2019-01-09T16:38:01.952Z,3.60
2019-01-09T16:40:40.741Z,3.60
2019-01-09T16:43:19.828Z,3.60
2019-01-09T16:45:59.046Z,3.50
2019-01-09T16:48:39.658Z,3.60
2019-01-09T16:51:21.772Z,3.50
2019-01-09T16:54:09.637Z,3.50
2019-01-09T16:56:50.230Z,3.50
2019-01-09T16:59:29.624Z,3.60
2019-01-09T17:02:10.371Z,3.60
2019-01-09T17:04:51.078Z,3.50
2019-01-09T17:07:31.918Z,3.50
2019-01-09T17:10:11.548Z,3.50
2019-01-09T17:12:52.406Z,3.50
2019-01-09T17:15:34.854Z,3.50
2019-01-09T17:18:13.820Z,3.50
2019-01-09T17:20:53.276Z,3.50
2019-01-09T17:23:32.034Z,3.50
2019-01-09T17:26:14.523Z,3.60
2019-01-09T17:28:53.231Z,3.60
2019-01-09T17:31:33.764Z,3.50
2019-01-09T17:34:12.879Z,3.50
2019-01-09T17:36:56.294Z,3.60
2019-01-09T17:39:38.492Z,3.50
2019-01-09T17:42:19.373Z,3.50
2019-01-09T17:44:58.396Z,3.40
2019-01-09T17:47:37.020Z,3.40
2019-01-09T17:50:22.551Z,3.40
2019-01-09T17:53:02.524Z,3.40
2019-01-09T17:55:43.644Z,3.40
2019-01-09T17:58:21.586Z,3.30
2019-01-09T18:00:59.968Z,3.30
2019-01-09T18:03:37.806Z,3.30
2019-01-09T18:06:16.193Z,3.20
2019-01-09T18:08:54.957Z,3.20
2019-01-09T18:11:33.896Z,3.20
2019-01-09T18:14:13.359Z,3.20
2019-01-09T18:16:51.569Z,3.10
2019-01-09T18:19:29.945Z,3.10
2019-01-09T18:22:08.168Z,3.10
2019-01-09T18:24:46.927Z,3.10
2019-01-09T18:27:25.569Z,3.00
2019-01-09T18:30:08.062Z,3.00
2019-01-09T18:33:25.946Z,3.00
2019-01-09T18:36:54.117Z,3.10
2019-01-09T18:39:46.040Z,3.10
2019-01-09T18:43:07.595Z,3.10
2019-01-09T18:46:41.100Z,3.10
2019-01-09T18:50:02.458Z,3.10
2019-01-09T18:53:28.176Z,3.10
2019-01-09T18:56:00.420Z,3.10
2019-01-09T18:58:31.741Z,3.10
2019-01-09T19:01:03.036Z,3.00
2019-01-09T19:03:34.395Z,3.10
2019-01-09T19:06:06.719Z,3.10
2019-01-09T19:08:37.925Z,3.10
2019-01-09T19:11:09.839Z,3.10
2019-01-09T19:13:41.100Z,3.10
2019-01-09T19:16:17.104Z,3.10
2019-01-09T19:18:48.443Z,3.10
2019-01-09T19:21:29.225Z,3.10
2019-01-09T19:24:04.316Z,3.10
2019-01-09T19:26:45.320Z,3.10
2019-01-09T19:29:25.045Z,3.10
2019-01-09T19:32:00.106Z,3.10
2019-01-09T19:34:31.670Z,3.00
2019-01-09T19:37:04.796Z,3.10
2019-01-09T19:39:38.094Z,3.00
2019-01-09T19:42:09.896Z,3.10
2019-01-09T19:44:41.454Z,3.00
2019-01-09T19:47:14.594Z,3.00
2019-01-09T19:49:48.031Z,3.00
2019-01-09T19:52:21.024Z,2.90
2019-01-09T19:54:54.068Z,3.00
2019-01-09T19:57:26.231Z,2.90
2019-01-09T19:59:57.971Z,3.00
2019-01-09T20:02:29.270Z,2.90
2019-01-09T20:05:01.563Z,2.90
2019-01-09T20:07:36.792Z,2.90
2019-01-09T20:10:11.759Z,2.90
2019-01-09T20:12:45.829Z,2.90
2019-01-09T20:15:19.274Z,2.90
2019-01-09T20:17:53.785Z,2.90
2019-01-09T20:20:28.113Z,2.80
2019-01-09T20:23:00.135Z,2.80
2019-01-09T20:25:35.142Z,2.80
2019-01-09T20:28:06.604Z,2.70
2019-01-09T20:30:38.595Z,2.70
2019-01-09T20:33:10.027Z,2.70
2019-01-09T20:35:41.565Z,2.70
2019-01-09T20:38:12.972Z,2.60
2019-01-09T20:40:44.664Z,2.60
2019-01-09T20:43:16.032Z,2.60
2019-01-09T20:45:47.428Z,2.60
2019-01-09T20:48:18.800Z,2.60
2019-01-09T20:50:50.485Z,2.60
2019-01-09T20:53:21.849Z,2.60
2019-01-09T20:55:53.297Z,2.60
2019-01-09T20:58:24.856Z,2.60
2019-01-09T21:00:56.235Z,2.60
2019-01-09T21:03:28.008Z,2.60
2019-01-09T21:05:59.821Z,2.60
2019-01-09T21:08:37.040Z,2.50
2019-01-09T21:11:08.856Z,2.40
2019-01-09T21:13:40.121Z,2.30
2019-01-09T21:16:11.514Z,2.20
2019-01-09T21:18:42.767Z,2.10
2019-01-09T21:21:14.930Z,2.10
2019-01-09T21:23:46.276Z,2.00
2019-01-09T21:26:17.784Z,1.90
2019-01-09T21:28:49.090Z,1.90
2019-01-09T21:31:20.363Z,1.80
2019-01-09T21:33:51.686Z,1.80
2019-01-09T21:36:23.085Z,1.70
2019-01-09T21:38:54.385Z,1.60
2019-01-09T21:41:25.944Z,1.60
2019-01-09T21:43:57.183Z,1.50
2019-01-09T21:46:28.569Z,1.40
2019-01-09T21:48:59.874Z,1.40
2019-01-09T21:51:31.166Z,1.40
2019-01-09T21:54:02.471Z,1.40
2019-01-09T21:56:33.768Z,1.40
2019-01-09T21:59:05.215Z,1.20
2019-01-09T22:01:37.033Z,1.20
2019-01-09T22:04:08.483Z,1.20
2019-01-09T22:06:40.217Z,1.30
2019-01-09T22:09:12.004Z,1.30
2019-01-09T22:11:51.031Z,1.20
2019-01-09T22:14:26.539Z,1.30
2019-01-09T22:16:58.644Z,1.20
2019-01-09T22:19:30.893Z,1.20
2019-01-09T22:22:05.899Z,1.20
2019-01-09T22:24:50.666Z,1.10
2019-01-09T22:27:25.288Z,1.10
2019-01-09T22:29:58.022Z,1.10
2019-01-09T22:32:33.264Z,1.00
2019-01-09T22:35:06.461Z,1.00
2019-01-09T22:37:39.227Z,0.90
2019-01-09T22:40:21.488Z,0.90
2019-01-09T22:42:54.035Z,0.80
2019-01-09T22:45:28.188Z,0.60
2019-01-09T22:48:05.908Z,0.60
2019-01-09T22:50:44.127Z,0.60
2019-01-09T22:53:17.021Z,0.70
2019-01-09T22:55:49.702Z,0.70
2019-01-09T22:58:21.568Z,0.70
2019-01-09T23:01:23.307Z,0.60
2019-01-09T23:03:58.522Z,0.60
2019-01-09T23:06:34.159Z,0.50
2019-01-09T23:09:12.133Z,0.50
2019-01-09T23:11:49.419Z,0.40
2019-01-09T23:14:22.308Z,0.40
2019-01-09T23:16:56.935Z,0.40
2019-01-09T23:19:36.149Z,0.40
2019-01-09T23:22:08.395Z,0.40
2019-01-09T23:24:43.350Z,0.40
2019-01-09T23:27:15.227Z,0.40
2019-01-09T23:29:46.711Z,0.30
2019-01-09T23:32:18.060Z,0.30
2019-01-09T23:34:50.435Z,0.30
2019-01-09T23:37:21.707Z,0.30
2019-01-09T23:39:52.999Z,0.30
2019-01-09T23:42:30.274Z,0.40
2019-01-09T23:44:57.263Z,0.30
2019-01-09T23:47:28.549Z,0.30
2019-01-09T23:50:00.019Z,0.30
2019-01-09T23:52:31.289Z,0.30
2019-01-09T23:55:02.570Z,0.30
2019-01-09T23:57:34.277Z,0.20
